Time;durP1;ratioP1;P1;durP2;ratioP2;P2;SDS_P1;SDS_P2;PMS_P1;PMS_P2;Temp;Humidity;BMP_temperature;BMP_pressure;BME280_temperature;BME280_humidity;BME280_pressure;Samples;Min_cycle;Max_cycle;Signal;HPM_P1;HPM_P2
2021/01/24 11:58:31;;;;;;;6.55;2.03;;;17.70;25.30;;;8.11;36.02;96785.44;5098265;28;20371;-83
2021/01/24 12:00:57;;;;;;;19.30;2.65;;;11.60;34.80;;;6.63;40.20;96796.22;5078307;28;20405;-83
2021/01/24 12:03:23;;;;;;;4.90;2.60;;;8.60;42.10;;;4.50;44.70;96798.16;5077035;28;20431;-83
2021/01/24 12:05:51;;;;;;;8.32;2.50;;;6.60;46.30;;;3.31;48.63;96791.13;5078496;28;20432;-82
2021/01/24 12:08:18;;;;;;;8.70;2.93;;;5.00;51.50;;;3.44;49.46;96804.09;5079492;28;20416;-83
2021/01/24 12:10:44;;;;;;;6.88;3.10;;;4.60;53.00;;;3.35;48.86;96808.00;5082181;28;20751;-81
2021/01/24 12:13:10;;;;;;;5.15;2.88;;;4.60;52.70;;;3.06;49.64;96806.94;5090651;28;20436;-81
2021/01/24 12:15:37;;;;;;;7.20;3.30;;;4.40;53.20;;;3.03;50.76;96804.75;5091979;28;20421;-80
2021/01/24 12:18:03;;;;;;;5.88;2.72;;;4.20;54.00;;;2.91;50.22;96822.16;5089842;28;20440;-81
2021/01/24 12:20:30;;;;;;;4.20;3.00;;;4.10;54.00;;;2.80;51.48;96812.41;5082558;28;20480;-84
2021/01/24 12:22:57;;;;;;;7.20;3.80;;;4.00;54.50;;;2.88;51.02;96819.97;5078078;28;20420;-81
2021/01/24 12:25:23;;;;;;;7.00;2.97;;;4.10;54.30;;;3.04;50.51;96808.16;5089018;28;20409;-81
2021/01/24 12:27:49;;;;;;;10.27;3.35;;;4.20;54.30;;;3.15;50.04;96827.56;5085019;28;20416;-82
2021/01/24 12:30:16;;;;;;;4.20;2.70;;;4.30;53.80;;;3.17;49.85;96818.47;5085563;28;20409;-81
2021/01/24 12:32:44;;;;;;;11.07;3.72;;;4.30;53.60;;;2.80;51.31;96817.63;5083314;28;20424;-80
2021/01/24 12:35:12;;;;;;;14.95;3.60;;;4.10;53.90;;;2.77;50.59;96833.75;5084874;28;20428;-82
2021/01/24 12:37:38;;;;;;;5.70;3.35;;;4.00;54.60;;;2.54;52.52;96834.38;5079867;28;20424;-81
2021/01/24 12:40:07;;;;;;;8.98;3.45;;;3.80;55.40;;;2.57;52.60;96833.91;5082084;28;20440;-80
2021/01/24 12:42:34;;;;;;;10.50;3.43;;;3.80;55.80;;;2.79;52.05;96836.13;5081384;28;20424;-80
2021/01/24 12:45:01;;;;;;;4.20;2.75;;;3.90;55.60;;;2.46;52.38;96839.06;5085872;28;20408;-80
2021/01/24 12:47:27;;;;;;;6.45;2.85;;;3.80;55.30;;;2.12;53.96;96828.03;5083635;28;20523;-80
2021/01/24 12:49:57;;;;;;;5.18;3.40;;;3.40;56.70;;;2.23;53.83;96844.84;5084380;28;21023;-82
2021/01/24 12:52:23;;;;;;;5.55;3.20;;;3.40;57.30;;;2.38;53.78;96842.72;5089551;28;20419;-82
2021/01/24 12:54:49;;;;;;;8.95;3.20;;;3.50;57.20;;;2.26;53.03;96834.75;5091341;28;20396;-81
2021/01/24 12:57:15;;;;;;;3.78;3.20;;;3.50;56.70;;;2.37;53.36;96838.50;5080803;28;20418;-82
2021/01/24 12:59:42;;;;;;;3.67;2.88;;;3.50;56.60;;;2.32;52.63;96849.59;5053383;28;20476;-82
2021/01/24 13:02:08;;;;;;;7.18;3.10;;;3.50;56.20;;;2.23;52.31;96837.81;5067666;28;20441;-81
2021/01/24 13:04:35;;;;;;;9.73;3.53;;;3.50;55.80;;;2.47;51.92;96833.63;5067658;28;20403;-81
2021/01/24 13:07:04;;;;;;;7.70;3.38;;;3.60;56.00;;;2.51;51.76;96826.13;5066703;28;20466;-82
2021/01/24 13:09:30;;;;;;;7.47;3.08;;;3.70;55.40;;;2.69;50.77;96839.25;5054869;28;20474;-81
2021/01/24 13:11:56;;;;;;;4.65;3.20;;;3.80;55.00;;;2.90;50.73;96848.53;5052783;28;20425;-81
2021/01/24 13:14:24;;;;;;;6.10;2.92;;;3.90;54.60;;;2.83;50.32;96832.09;5053071;28;20438;-81
2021/01/24 13:16:50;;;;;;;6.45;3.20;;;4.00;54.10;;;2.99;49.60;96829.72;5053015;28;20431;-81
2021/01/24 13:19:16;;;;;;;5.07;3.28;;;4.10;54.60;;;2.88;49.79;96842.69;5055631;28;20619;-82
2021/01/24 13:21:42;;;;;;;8.83;3.27;;;4.00;53.40;;;3.16;48.55;96840.41;5056011;28;20572;-81
2021/01/24 13:24:10;;;;;;;5.72;2.90;;;4.20;53.10;;;3.18;48.77;96841.00;5052264;28;20793;-80
2021/01/24 13:26:36;;;;;;;6.60;2.92;;;4.30;52.70;;;2.66;49.37;96837.06;5052232;28;20415;-81
2021/01/24 13:29:02;;;;;;;5.35;3.10;;;3.90;52.90;;;2.83;49.91;96861.66;5056117;28;20474;-82
2021/01/24 13:31:28;;;;;;;5.82;3.05;;;4.00;53.40;;;2.77;49.23;96859.09;5055921;28;20457;-82
2021/01/24 13:33:54;;;;;;;8.80;3.03;;;3.90;53.10;;;3.07;48.79;96857.41;5053502;28;20418;-82
2021/01/24 13:36:20;;;;;;;7.28;2.85;;;4.10;53.00;;;3.37;47.73;96862.72;5044764;28;20449;-83
2021/01/24 13:38:46;;;;;;;7.45;2.90;;;4.40;52.40;;;3.42;47.25;96866.28;5046149;28;20414;-83
2021/01/24 13:41:13;;;;;;;10.40;2.92;;;4.60;51.70;;;3.42;48.19;96879.38;5044818;28;20430;-82
2021/01/24 13:43:40;;;;;;;5.90;3.33;;;4.60;52.10;;;2.80;49.34;96885.59;5045247;28;20521;-84
2021/01/24 13:46:06;;;;;;;7.03;2.90;;;4.00;52.80;;;2.69;50.09;96887.09;5044389;28;20422;-82
2021/01/24 13:48:32;;;;;;;5.97;3.05;;;3.90;53.50;;;2.52;50.09;96888.63;5042700;28;20403;-82
2021/01/24 13:50:58;;;;;;;6.23;3.30;;;3.70;53.80;;;2.36;50.74;96886.53;5040437;28;20503;-81
2021/01/24 13:53:30;;;;;;;9.68;3.70;;;3.50;54.60;;;2.57;50.76;96887.97;5041947;28;20843;-81
2021/01/24 13:55:56;;;;;;;5.60;3.17;;;3.70;54.60;;;2.73;50.37;96888.25;5041411;28;20472;-81
2021/01/24 13:58:23;;;;;;;5.07;3.03;;;3.90;54.10;;;2.99;49.80;96889.88;5080417;28;20427;-82
2021/01/24 14:00:49;;;;;;;6.03;2.95;;;4.10;53.90;;;3.10;49.56;96894.38;5081531;28;20495;-82
2021/01/24 14:03:15;;;;;;;7.97;3.08;;;4.20;53.50;;;3.13;50.00;96892.34;5081521;28;20837;-81
2021/01/24 14:05:42;;;;;;;4.18;2.90;;;4.20;53.50;;;3.09;49.60;96899.81;5080979;28;20821;-80
2021/01/24 14:08:08;;;;;;;8.60;3.33;;;4.20;53.60;;;2.79;50.22;96893.63;5081594;28;20408;-83
2021/01/24 14:10:36;;;;;;;7.82;3.20;;;4.00;53.70;;;2.88;50.80;96901.00;5079226;28;20403;-85
2021/01/24 14:13:03;;;;;;;5.68;3.15;;;4.00;54.40;;;2.92;50.63;96896.16;5044837;28;20428;-84
2021/01/24 14:15:34;;;;;;;6.43;3.00;;;4.10;54.40;;;3.10;50.89;96891.75;5044902;28;20692;-80
2021/01/24 14:18:00;;;;;;;7.13;3.58;;;4.20;54.50;;;3.08;50.51;96899.00;5061187;28;20436;-83
2021/01/24 14:20:27;;;;;;;6.93;3.03;;;4.20;54.20;;;3.09;50.73;96884.91;5058926;28;20405;-82
2021/01/24 14:22:54;;;;;;;10.60;3.38;;;4.30;54.20;;;3.23;50.17;96892.66;5059474;28;20496;-81
2021/01/24 14:25:20;;;;;;;6.03;2.88;;;4.30;54.10;;;2.90;50.53;96898.19;5060863;28;20409;-81
2021/01/24 14:27:50;;;;;;;6.85;2.92;;;4.20;53.80;;;2.86;51.29;96892.56;5060804;28;20718;-81
2021/01/24 14:30:17;;;;;;;10.18;3.63;;;4.00;54.60;;;2.94;51.18;96900.13;5061526;28;20818;-81
2021/01/24 14:32:46;;;;;;;6.50;3.22;;;4.10;54.90;;;2.98;51.43;96895.28;5060919;28;20418;-80
2021/01/24 14:35:16;;;;;;;7.82;3.53;;;4.10;54.80;;;2.99;51.51;96899.53;5060477;28;20405;-81
2021/01/24 14:37:42;;;;;;;6.25;3.65;;;4.10;55.00;;;2.95;51.90;96903.56;5060036;28;20649;-81
2021/01/24 14:40:09;;;;;;;12.97;3.70;;;4.10;55.20;;;3.03;51.13;96898.88;5042930;28;20723;-80
2021/01/24 14:42:36;;;;;;;8.77;3.20;;;4.20;55.00;;;3.21;50.33;96900.72;5060459;28;20425;-80
2021/01/24 14:45:02;;;;;;;8.52;3.78;;;4.30;55.20;;;2.90;51.36;96900.78;5061808;28;20398;-80
2021/01/24 14:47:28;;;;;;;6.68;3.35;;;4.10;54.70;;;2.89;51.81;96900.00;5059008;28;20807;-80
2021/01/24 14:49:55;;;;;;;17.88;4.10;;;4.10;55.30;;;2.56;52.15;96897.63;5059872;28;20412;-79
2021/01/24 14:52:22;;;;;;;5.28;3.30;;;3.80;56.00;;;2.69;52.14;96897.56;5059832;28;20413;-81
2021/01/24 14:54:48;;;;;;;6.13;3.20;;;3.80;55.80;;;2.72;52.17;96897.09;5061468;28;20859;-80
2021/01/24 14:57:14;;;;;;;8.48;3.65;;;3.90;55.70;;;2.75;52.14;96895.91;5050467;28;20439;-79
2021/01/24 14:59:40;;;;;;;5.90;3.27;;;3.90;55.80;;;2.70;52.55;96900.97;5040243;28;20747;-80
2021/01/24 15:02:06;;;;;;;6.28;3.50;;;3.90;55.70;;;2.48;53.02;96905.72;5040374;28;20445;-81
2021/01/24 15:04:33;;;;;;;4.97;3.47;;;3.70;56.40;;;2.43;53.40;96899.53;5040053;28;20437;-80
2021/01/24 15:07:01;;;;;;;4.95;3.53;;;3.60;56.70;;;2.51;53.60;96900.09;5039545;28;20415;-82
2021/01/24 15:09:27;;;;;;;7.93;3.55;;;3.60;56.80;;;2.54;53.74;96901.50;5041054;28;20434;-81
2021/01/24 15:11:53;;;;;;;9.07;3.20;;;3.70;57.00;;;2.48;53.74;96894.50;5042195;28;20505;-81
2021/01/24 15:14:19;;;;;;;6.53;3.60;;;3.70;57.00;;;2.36;54.00;96894.38;5044726;28;20403;-81
2021/01/24 15:16:45;;;;;;;7.75;3.80;;;3.60;57.30;;;2.48;53.62;96897.88;5043957;28;20674;-81
2021/01/24 15:19:11;;;;;;;13.68;5.65;;;3.60;57.30;;;2.54;53.32;96901.50;5041435;28;20410;-81
2021/01/24 15:21:37;;;;;;;8.60;3.67;;;3.70;57.00;;;2.60;53.13;96903.25;5042549;28;20441;-81
2021/01/24 15:24:06;;;;;;;9.73;3.60;;;3.80;56.80;;;2.72;53.52;96899.72;5041466;28;20553;-83
2021/01/24 15:26:33;;;;;;;8.80;3.47;;;3.90;56.80;;;2.96;52.98;96905.16;5053960;28;20426;-79
2021/01/24 15:28:59;;;;;;;6.78;3.30;;;4.10;56.50;;;2.97;53.10;96904.16;5038314;28;20464;-79
2021/01/24 15:31:25;;;;;;;7.10;3.30;;;4.10;56.30;;;3.01;52.39;96900.88;5043600;28;20538;-79
2021/01/24 15:33:52;;;;;;;8.85;3.28;;;4.20;55.70;;;3.15;52.35;96906.00;5038512;28;20423;-80
2021/01/24 15:36:18;;;;;;;8.15;3.30;;;4.20;55.80;;;3.26;52.33;96900.06;5020458;28;20416;-80
2021/01/24 15:38:45;;;;;;;10.60;3.40;;;4.30;55.70;;;3.32;51.98;96910.44;5038253;28;20411;-80
2021/01/24 15:41:12;;;;;;;5.40;3.20;;;4.40;55.50;;;3.44;51.55;96913.16;5038791;28;20502;-79
2021/01/24 15:43:38;;;;;;;4.88;3.30;;;4.50;55.10;;;3.28;51.16;96900.66;5037890;28;20429;-80
2021/01/24 15:46:04;;;;;;;7.35;3.60;;;4.50;54.70;;;3.15;51.91;96904.19;5037678;28;20646;-79
2021/01/24 15:48:30;;;;;;;8.30;4.05;;;4.40;55.10;;;3.31;51.66;96911.47;5020548;28;20670;-78
2021/01/24 15:50:56;;;;;;;6.55;3.75;;;4.40;56.30;;;3.18;51.82;96905.56;5036899;28;20415;-79
2021/01/24 15:53:22;;;;;;;5.87;3.20;;;4.40;55.20;;;3.05;51.83;96914.34;5036413;28;20520;-79
2021/01/24 15:55:48;;;;;;;10.07;3.53;;;4.30;55.40;;;2.96;52.46;96911.19;5039524;28;20413;-80
2021/01/24 15:58:15;;;;;;;7.32;3.20;;;4.20;55.60;;;2.87;52.42;96911.66;5041989;28;20438;-79
2021/01/24 16:00:42;;;;;;;5.15;3.20;;;4.10;55.70;;;3.03;51.94;96900.66;5041744;28;20415;-80
2021/01/24 16:03:08;;;;;;;9.52;3.58;;;4.10;55.40;;;2.77;52.72;96906.94;5042016;28;20431;-79
2021/01/24 16:05:34;;;;;;;6.30;3.67;;;4.00;55.80;;;2.72;52.60;96912.78;5045116;28;20514;-79
2021/01/24 16:08:00;;;;;;;10.63;4.00;;;3.90;55.90;;;2.62;52.95;96920.31;5041914;28;20688;-78
2021/01/24 16:10:26;;;;;;;10.90;4.10;;;3.90;56.10;;;2.67;52.63;96909.22;5042253;28;20449;-79
2021/01/24 16:12:52;;;;;;;7.97;3.70;;;3.90;56.20;;;2.71;52.35;96918.22;5044036;28;20471;-78
2021/01/24 16:15:19;;;;;;;7.95;3.88;;;3.90;55.90;;;2.79;52.36;96917.16;5045216;28;20829;-79
2021/01/24 16:17:45;;;;;;;9.48;3.33;;;3.90;55.80;;;2.84;52.05;96920.75;5046605;28;20431;-78
2021/01/24 16:20:13;;;;;;;10.43;3.80;;;4.00;55.60;;;2.81;51.88;96915.94;5029298;28;20427;-77
2021/01/24 16:22:39;;;;;;;7.72;3.30;;;4.00;55.40;;;2.85;52.05;96921.56;5040091;28;20494;-80
2021/01/24 16:25:06;;;;;;;8.88;3.78;;;4.00;55.40;;;2.70;52.72;96927.09;5039477;28;20419;-79
2021/01/24 16:27:32;;;;;;;6.90;3.17;;;4.00;55.80;;;2.75;52.22;96929.88;5040707;28;20813;-79
2021/01/24 16:29:58;;;;;;;9.02;3.60;;;3.90;56.00;;;2.64;52.77;96931.34;5044488;28;20429;-79
2021/01/24 16:32:25;;;;;;;9.60;4.40;;;3.80;56.10;;;2.65;52.85;96926.91;5038033;28;20413;-79
2021/01/24 16:34:51;;;;;;;9.73;3.90;;;3.80;56.30;;;2.59;53.06;96935.59;5038129;28;20468;-79
2021/01/24 16:37:18;;;;;;;12.75;4.63;;;3.80;56.50;;;2.58;53.50;96929.56;5039006;28;20435;-79
2021/01/24 16:39:44;;;;;;;14.85;4.47;;;3.80;56.60;;;2.59;53.54;96935.59;5036705;28;20426;-79
2021/01/24 16:42:10;;;;;;;10.45;4.13;;;3.80;56.60;;;2.62;53.04;96943.84;5035755;28;20418;-79
2021/01/24 16:44:36;;;;;;;9.95;3.88;;;3.90;56.60;;;2.77;52.46;96938.31;5042989;28;20498;-79
2021/01/24 16:47:03;;;;;;;6.60;3.83;;;3.90;56.30;;;2.78;52.81;96936.50;5044263;28;20765;-78
2021/01/24 16:49:33;;;;;;;8.82;3.80;;;4.00;56.10;;;2.84;52.28;96920.75;5040889;28;20501;-78
2021/01/24 16:51:59;;;;;;;6.47;3.40;;;4.00;55.70;;;2.97;52.06;96925.06;5039354;28;20647;-80
2021/01/24 16:54:27;;;;;;;11.25;4.00;;;4.10;56.20;;;2.71;52.99;96920.84;5022811;28;20421;-79
2021/01/24 16:56:53;;;;;;;10.35;4.28;;;4.00;55.80;;;2.78;53.16;96928.66;5040528;28;20496;-77
2021/01/24 16:59:19;;;;;;;13.30;4.47;;;3.90;56.30;;;2.65;53.08;96930.31;5040521;28;20422;-78
2021/01/24 17:01:46;;;;;;;18.45;4.32;;;3.80;56.40;;;2.62;53.84;96929.97;5039941;28;20768;-79
2021/01/24 17:04:12;;;;;;;13.57;4.23;;;3.90;56.70;;;2.61;53.47;96930.97;5041508;28;20430;-78
2021/01/24 17:06:39;;;;;;;10.07;4.32;;;3.80;56.70;;;2.60;53.70;96935.41;5040337;28;20411;-77
2021/01/24 17:09:05;;;;;;;8.60;3.58;;;3.90;56.80;;;2.75;53.04;96942.94;5042036;28;20438;-78
2021/01/24 17:11:32;;;;;;;10.40;3.50;;;3.80;56.80;;;2.78;52.95;96931.25;5042891;28;20429;-78
2021/01/24 17:13:58;;;;;;;17.45;4.50;;;4.00;56.50;;;2.77;53.40;96932.28;5041356;28;20706;-78
2021/01/24 17:16:24;;;;;;;9.35;3.70;;;4.00;56.50;;;2.76;53.29;96928.06;5041534;28;20485;-78
2021/01/24 17:18:51;;;;;;;11.23;4.20;;;4.00;56.30;;;2.77;52.81;96932.28;5024069;28;20411;-79
2021/01/24 17:21:17;;;;;;;13.30;4.07;;;4.00;56.20;;;2.76;52.81;96928.84;5042489;28;20518;-79
2021/01/24 17:23:44;;;;;;;8.45;4.18;;;4.00;56.20;;;2.71;53.09;96921.63;5042577;28;20418;-79
2021/01/24 17:26:10;;;;;;;11.02;4.03;;;3.90;56.10;;;2.71;52.87;96919.03;5025513;28;20459;-81
2021/01/24 17:28:36;;;;;;;10.45;3.90;;;3.90;56.30;;;2.68;53.04;96916.84;5042251;28;20403;-79
2021/01/24 17:31:02;;;;;;;11.88;4.45;;;3.90;56.40;;;2.68;53.40;96916.84;5042170;28;20896;-80
2021/01/24 17:33:28;;;;;;;13.60;4.87;;;3.90;56.50;;;2.74;53.27;96920.41;5044948;28;20403;-80
2021/01/24 17:35:55;;;;;;;7.90;4.10;;;3.90;57.30;;;2.76;53.00;96917.59;5044750;28;20594;-78
2021/01/24 17:38:21;;;;;;;15.85;5.88;;;4.00;56.40;;;2.90;52.79;96903.41;5043206;28;20724;-78
2021/01/24 17:40:48;;;;;;;10.95;4.97;;;4.00;56.30;;;2.94;52.59;96901.94;5043323;28;20472;-78
2021/01/24 17:43:14;;;;;;;11.32;5.15;;;4.10;56.30;;;2.82;52.95;96907.09;5042169;28;20473;-77
2021/01/24 17:45:41;;;;;;;13.38;4.82;;;4.00;56.20;;;2.79;53.24;96910.13;5039625;28;20423;-77
2021/01/24 17:48:07;;;;;;;16.33;5.00;;;4.00;56.50;;;2.64;53.65;96910.44;5038798;28;20407;-77
2021/01/24 17:50:34;;;;;;;15.90;5.00;;;3.90;56.90;;;2.86;53.60;96917.91;5041198;28;20437;-77
2021/01/24 17:53:01;;;;;;;14.10;5.93;;;3.90;56.90;;;2.91;52.87;96907.63;5042674;28;20411;-77
2021/01/24 17:55:27;;;;;;;19.30;5.53;;;4.00;56.60;;;2.91;52.98;96900.59;5030891;28;20433;-78
2021/01/24 17:57:54;;;;;;;20.75;5.95;;;4.10;56.40;;;2.75;53.66;96905.53;5051162;28;20442;-77
2021/01/24 18:00:22;;;;;;;19.52;5.78;;;4.00;56.80;;;2.70;54.01;96908.81;5053600;28;20411;-77
2021/01/24 18:02:48;;;;;;;16.80;6.10;;;3.90;57.10;;;2.64;54.10;96902.59;5054995;28;20482;-77
2021/01/24 18:05:15;;;;;;;13.50;6.07;;;3.80;57.30;;;2.55;54.01;96890.84;5053095;28;20407;-78
2021/01/24 18:07:41;;;;;;;18.23;6.43;;;3.80;57.10;;;2.39;54.73;96888.72;5033059;28;20453;-78
2021/01/24 18:10:09;;;;;;;19.92;6.05;;;3.70;57.40;;;2.50;54.43;96887.22;5052346;28;20395;-77
2021/01/24 18:12:35;;;;;;;17.13;6.32;;;3.60;57.80;;;2.52;54.40;96898.28;5052695;28;20411;-78
2021/01/24 18:15:05;;;;;;;12.35;5.90;;;3.70;57.80;;;2.33;55.55;96892.97;5050742;28;20437;-79
2021/01/24 18:17:32;;;;;;;17.23;6.22;;;3.60;58.20;;;2.21;55.79;96886.81;5041081;28;20817;-78
2021/01/24 18:19:59;;;;;;;12.40;6.20;;;3.50;58.60;;;2.03;56.54;96883.34;5039953;28;20402;-79
2021/01/24 18:22:25;;;;;;;20.77;7.57;;;3.30;59.10;;;1.80;57.32;96878.63;5038434;28;20593;-79
2021/01/24 18:24:51;;;;;;;18.70;7.45;;;3.20;59.70;;;1.52;58.14;96879.72;5039042;28;20414;-79
2021/01/24 18:27:17;;;;;;;13.52;6.90;;;2.90;60.50;;;1.28;58.85;96885.59;5021130;28;20426;-77
2021/01/24 18:29:46;;;;;;;17.02;7.53;;;2.70;61.50;;;1.33;59.03;96882.41;5040189;28;20426;-76
2021/01/24 18:32:13;;;;;;;14.23;7.20;;;2.60;61.80;;;1.32;58.70;96884.22;5043367;28;20430;-76
2021/01/24 18:34:39;;;;;;;17.83;7.65;;;2.60;61.70;;;1.27;58.87;96893.66;5048937;28;20399;-77
2021/01/24 18:37:05;;;;;;;17.33;7.22;;;2.50;61.80;;;1.40;58.75;96891.00;5050441;28;20423;-77
2021/01/24 18:39:31;;;;;;;16.88;7.20;;;2.60;61.70;;;1.47;58.45;96881.34;5051813;28;20471;-77
2021/01/24 18:41:58;;;;;;;18.20;6.20;;;2.70;61.40;;;1.55;57.65;96875.91;5051161;28;20483;-77
2021/01/24 18:44:24;;;;;;;18.52;6.30;;;2.80;60.40;;;1.73;57.18;96876.03;5050171;28;20407;-77
2021/01/24 18:46:50;;;;;;;20.08;6.63;;;2.90;60.40;;;1.90;56.83;96877.16;5043822;28;20415;-77
2021/01/24 18:49:17;;;;;;;12.75;5.00;;;3.10;60.00;;;1.93;55.80;96876.75;5040292;28;20660;-78
2021/01/24 18:51:43;;;;;;;9.57;4.90;;;3.10;59.00;;;1.88;55.82;96871.34;5021908;28;20601;-77
2021/01/24 18:54:09;;;;;;;13.20;4.90;;;3.20;58.80;;;1.91;56.22;96870.13;5038724;28;20690;-78
2021/01/24 18:56:36;;;;;;;11.68;4.75;;;3.20;58.80;;;1.94;56.00;96869.72;5039189;28;20431;-77
2021/01/24 18:59:02;;;;;;;12.57;4.88;;;3.20;58.70;;;1.96;55.75;96872.91;5040845;28;20415;-80
2021/01/24 19:01:28;;;;;;;10.32;4.90;;;3.20;58.40;;;2.08;54.92;96865.22;5040683;28;20472;-78
2021/01/24 19:03:54;;;;;;;11.63;5.20;;;3.30;58.20;;;2.07;55.03;96858.41;5040585;28;20449;-79
2021/01/24 19:06:21;;;;;;;11.60;5.43;;;3.30;58.10;;;2.08;55.28;96855.59;5040795;28;20414;-78
2021/01/24 19:08:47;;;;;;;12.98;5.18;;;3.40;58.00;;;2.17;54.62;96861.34;5041131;28;20407;-79
2021/01/24 19:11:13;;;;;;;11.50;4.78;;;3.40;58.00;;;2.11;54.64;96862.19;5021986;28;20426;-78
2021/01/24 19:13:40;;;;;;;9.55;4.78;;;3.40;57.90;;;2.44;54.24;96860.16;5040139;28;20411;-78
2021/01/24 19:16:06;;;;;;;9.93;4.57;;;3.50;58.00;;;2.47;53.90;96864.97;5039879;28;20463;-79
2021/01/24 19:18:33;;;;;;;9.15;4.80;;;3.60;57.40;;;2.56;53.72;96875.94;5020761;28;20510;-80
2021/01/24 19:20:59;;;;;;;15.27;5.88;;;3.70;57.10;;;2.34;54.38;96880.72;5039215;28;20415;-79
2021/01/24 19:23:26;;;;;;;11.10;5.25;;;3.60;57.10;;;2.30;54.22;96875.13;5038236;28;20454;-80
2021/01/24 19:25:53;;;;;;;15.70;5.78;;;3.60;57.30;;;2.27;54.94;96875.53;5038810;28;20411;-78
2021/01/24 19:28:19;;;;;;;19.40;6.13;;;3.50;57.80;;;2.18;55.22;96873.41;5037883;28;20798;-78
2021/01/24 19:30:45;;;;;;;14.13;5.80;;;3.40;58.00;;;2.31;55.02;96865.47;5021468;28;20491;-78
2021/01/24 19:33:17;;;;;;;14.02;6.40;;;3.50;58.20;;;2.15;55.50;96868.59;5038650;28;20488;-80
2021/01/24 19:35:44;;;;;;;14.70;6.63;;;3.40;58.10;;;2.01;55.72;96861.84;5039228;28;20418;-79
2021/01/24 19:38:10;;;;;;;13.93;6.82;;;3.30;58.50;;;1.98;56.17;96870.09;5040166;28;20518;-79
2021/01/24 19:40:37;;;;;;;11.23;5.97;;;3.20;58.80;;;1.98;56.12;96865.66;5036495;28;20761;-79
2021/01/24 19:43:04;;;;;;;17.42;6.72;;;3.20;58.90;;;1.95;55.69;96863.50;5035676;28;20848;-76
2021/01/24 19:45:30;;;;;;;13.80;6.68;;;3.20;58.70;;;2.08;55.19;96858.19;5036766;28;20435;-79
2021/01/24 19:47:56;;;;;;;12.65;6.10;;;3.20;58.40;;;2.15;54.66;96852.94;5037361;28;20486;-78
2021/01/24 19:50:22;;;;;;;11.30;6.50;;;3.30;58.00;;;2.00;54.97;96842.78;5036863;28;20697;-78
2021/01/24 19:52:48;;;;;;;11.30;5.90;;;3.30;57.90;;;1.93;54.97;96840.22;5037130;28;20829;-76
2021/01/24 19:55:14;;;;;;;12.90;6.13;;;3.20;58.10;;;1.87;55.39;96838.44;5020814;28;20415;-78
2021/01/24 19:57:41;;;;;;;12.68;6.00;;;3.20;58.30;;;1.87;55.54;96840.25;5038043;28;20434;-77
2021/01/24 20:00:12;;;;;;;13.13;5.90;;;3.10;58.30;;;2.10;54.79;96837.09;5036122;28;20411;-76
2021/01/24 20:02:39;;;;;;;17.20;8.32;;;3.20;58.20;;;1.95;54.89;96840.00;5037322;28;20614;-78
2021/01/24 20:05:07;;;;;;;13.85;6.15;;;3.20;57.60;;;1.85;54.86;96837.03;5036047;28;20403;-77
2021/01/24 20:07:33;;;;;;;9.60;5.97;;;3.10;57.80;;;1.86;55.19;96836.03;5036535;28;20407;-77
2021/01/24 20:09:59;;;;;;;9.15;5.40;;;3.10;58.00;;;2.05;54.59;96837.72;5036350;28;20422;-77
2021/01/24 20:12:25;;;;;;;14.27;6.23;;;3.10;57.90;;;1.97;54.46;96830.13;5020272;28;20418;-78
2021/01/24 20:14:52;;;;;;;10.45;6.00;;;3.20;57.60;;;1.83;55.09;96823.41;5038524;28;20678;-78
2021/01/24 20:17:18;;;;;;;12.82;5.30;;;3.10;57.80;;;1.80;54.90;96821.22;5036628;28;20435;-79
2021/01/24 20:19:44;;;;;;;15.13;7.93;;;3.10;57.80;;;1.81;54.77;96823.59;5038855;28;20561;-77
2021/01/24 20:22:10;;;;;;;19.52;6.85;;;3.10;58.00;;;1.74;55.20;96827.25;5042109;28;20415;-78
2021/01/24 20:24:37;;;;;;;12.15;6.22;;;3.00;58.20;;;1.80;54.99;96826.44;5026335;28;20419;-80
2021/01/24 20:27:03;;;;;;;12.23;6.10;;;3.00;57.80;;;1.77;54.85;96835.47;5043751;28;20469;-79
2021/01/24 20:29:30;;;;;;;11.70;6.27;;;3.10;58.60;;;1.78;55.07;96820.63;5043510;28;20414;-79
2021/01/24 20:31:57;;;;;;;10.57;5.90;;;3.00;57.90;;;1.85;54.83;96829.22;5043905;28;20418;-78
2021/01/24 20:34:24;;;;;;;14.30;5.82;;;3.10;58.10;;;2.09;53.96;96851.97;5044457;28;20407;-78
2021/01/24 20:36:52;;;;;;;14.85;6.60;;;3.20;57.50;;;1.81;54.66;96859.31;5045933;28;20516;-78
2021/01/24 20:39:19;;;;;;;10.98;6.25;;;3.10;57.60;;;1.65;55.42;96841.56;5048708;28;20425;-79
2021/01/24 20:41:45;;;;;;;16.45;7.05;;;2.90;58.20;;;1.58;55.78;96841.56;5043823;28;20785;-79
2021/01/24 20:44:11;;;;;;;12.93;6.88;;;2.80;58.50;;;1.83;55.31;96845.06;5044911;28;20407;-78
2021/01/24 20:46:37;;;;;;;14.15;7.00;;;2.90;58.70;;;1.69;55.57;96821.88;5048023;28;20411;-79
2021/01/24 20:49:05;;;;;;;11.83;6.63;;;3.00;58.10;;;1.83;55.21;96832.03;5042191;28;20406;-80
2021/01/24 20:51:31;;;;;;;11.63;5.90;;;3.00;58.30;;;1.89;55.32;96844.22;5042041;28;20740;-79
2021/01/24 20:53:57;;;;;;;12.70;6.10;;;3.10;58.30;;;1.78;55.02;96839.69;5041883;28;20473;-81
2021/01/24 20:56:24;;;;;;;11.00;5.90;;;3.10;57.90;;;1.79;54.80;96822.22;5042589;28;20457;-79
2021/01/24 20:58:50;;;;;;;14.60;6.00;;;3.00;57.80;;;1.71;54.70;96815.44;5023915;28;20461;-79
2021/01/24 21:01:16;;;;;;;12.45;6.22;;;3.00;58.00;;;1.58;55.31;96820.69;5024618;28;20426;-79
2021/01/24 21:03:43;;;;;;;10.77;5.80;;;2.90;58.40;;;1.51;55.41;96822.53;5042283;28;20599;-80
2021/01/24 21:06:13;;;;;;;11.80;6.07;;;2.80;58.30;;;1.53;55.71;96821.34;5042391;28;20748;-81
2021/01/24 21:08:40;;;;;;;14.60;6.35;;;2.80;58.40;;;1.53;55.33;96813.50;5041581;28;20418;-80
2021/01/24 21:11:06;;;;;;;11.00;5.88;;;2.80;58.50;;;1.69;54.44;96808.81;5043569;28;20494;-79
2021/01/24 21:13:33;;;;;;;15.18;6.38;;;2.90;58.00;;;1.57;55.58;96811.31;5042838;28;20682;-80
2021/01/24 21:16:00;;;;;;;10.25;5.40;;;2.90;58.30;;;1.44;55.46;96799.09;5024696;28;20426;-79
2021/01/24 21:18:26;;;;;;;11.50;5.97;;;2.70;58.30;;;1.37;55.82;96803.56;5043222;28;20427;-80
2021/01/24 21:20:54;;;;;;;10.38;5.20;;;2.60;58.70;;;1.35;55.93;96795.16;5046317;28;20434;-79
2021/01/24 21:23:21;;;;;;;12.13;6.30;;;2.60;58.90;;;1.23;56.19;96798.59;5046097;28;20406;-80
2021/01/24 21:25:48;;;;;;;12.50;5.88;;;2.60;59.00;;;1.10;56.54;96800.25;5046595;28;20411;-80
2021/01/24 21:28:15;;;;;;;18.33;7.20;;;2.40;59.30;;;1.08;57.14;96797.03;5028284;28;20493;-81
2021/01/24 21:30:41;;;;;;;14.67;6.83;;;2.40;59.60;;;1.00;57.29;96801.69;5044945;28;20419;-79
2021/01/24 21:33:07;;;;;;;13.00;6.35;;;2.30;60.20;;;0.95;57.58;96794.50;5050939;28;20446;-79
2021/01/24 21:35:34;;;;;;;18.75;6.80;;;2.30;60.30;;;0.93;57.73;96793.88;5036282;28;20430;-81
2021/01/24 21:38:00;;;;;;;14.93;6.43;;;2.20;60.60;;;0.91;57.73;96793.28;5052497;28;20442;-81
2021/01/24 21:40:27;;;;;;;12.30;6.25;;;2.20;60.70;;;0.91;58.12;96793.28;5050124;28;20423;-81
2021/01/24 21:42:53;;;;;;;11.50;6.80;;;2.20;60.70;;;0.97;58.12;96781.25;5042637;28;20677;-81
2021/01/24 21:45:20;;;;;;;14.20;7.43;;;2.20;60.80;;;1.05;57.72;96781.81;5044387;28;20418;-82
2021/01/24 21:47:46;;;;;;;13.77;6.70;;;2.30;60.60;;;1.09;57.68;96779.59;5025549;28;20518;-80
2021/01/24 21:50:13;;;;;;;12.90;6.28;;;2.40;60.30;;;1.07;57.33;96777.19;5042423;28;20560;-81
2021/01/24 21:52:39;;;;;;;16.05;6.82;;;2.40;60.10;;;1.04;57.92;96769.00;5042240;28;20435;-81
2021/01/24 21:55:07;;;;;;;11.20;6.80;;;2.30;60.40;;;1.11;57.47;96770.59;5043487;28;20468;-79
2021/01/24 21:57:34;;;;;;;16.40;6.82;;;2.40;60.60;;;1.22;57.13;96766.50;5044604;28;20615;-80
2021/01/24 22:00:01;;;;;;;14.02;7.50;;;2.40;60.00;;;1.07;57.09;96765.97;5045477;28;20411;-81
2021/01/24 22:02:27;;;;;;;13.18;7.03;;;2.40;60.00;;;0.97;57.56;96760.41;5044492;28;20418;-80
2021/01/24 22:04:54;;;;;;;14.10;7.18;;;2.30;60.40;;;0.92;58.01;96758.41;5030129;28;20439;-81
2021/01/24 22:07:20;;;;;;;12.00;6.03;;;2.30;60.60;;;0.74;57.89;96766.09;5051829;28;20419;-81
2021/01/24 22:09:46;;;;;;;10.45;5.55;;;2.10;60.70;;;0.77;57.89;96763.88;5051436;28;20796;-81
2021/01/24 22:12:12;;;;;;;12.25;6.60;;;2.10;60.80;;;0.78;58.29;96778.50;5051612;28;20418;-80
2021/01/24 22:14:40;;;;;;;13.15;6.75;;;2.10;60.80;;;0.86;58.26;96774.88;5051783;28;20410;-81
2021/01/24 22:17:06;;;;;;;13.27;6.73;;;2.20;61.00;;;0.98;57.81;96777.63;5046011;28;20623;-80
2021/01/24 22:19:32;;;;;;;15.38;6.30;;;2.30;60.80;;;1.16;57.18;96778.56;5045491;28;20486;-80
2021/01/24 22:21:58;;;;;;;13.38;6.55;;;2.40;60.30;;;1.17;57.48;96771.56;5044466;28;20426;-81